Terminal Aerodrome Forecast
Issued by NWS

Home | Current Version | Previous Version | Text Only | Print | Product List | Glossary On
Versions: 1 2 3 4 5 6 7 8 9 10 11 12 13 14 15 16 17 18 19 20 21 22 23 24 25 26
000
FTUS46 KSGX 191400 AAA
TAFSAN
TAF AMD
KSAN 191451Z 1915/2018 30006KT P6SM BKN200
     FM200200 VRB04KT P6SM BKN035 BKN200
     FM200800 VRB04KT P6SM VCSH BKN025
     FM201600 VRB04KT P6SM SCT025 BKN035=

USA.gov is the U.S. government's official web portal to all federal, state and local government web resources and services.